PWSweather.com
Personal Weather Stations
Station Observations
CAPEBRETON
Mira Road, Sydney, NS

Mira RoadSydney, NS

Lat: 46.1207292, Lon: -60.1594642

Elevation: 175

Station Type: LaCrosse Weather Pro Center 2800 Series

http://pwscapebreton.weebly.com/

Latest ConditionsUpdated 8:30:02 PM GMT-04:56 Monday, Mar 2, 2015
Currently Today's Max Today's Min Today's Average
Temperature 25.0°F-3.9°C 36.4°F2.4°C 14.4°F-9.8°C 26.4°F-3.1°C
Dew Point 21.7°F-5.7°C 31.5°F-0.3°C 8.5°F-13.1°C 22.6°F-5.2°C
Winds 0.9 mph 1.4 kmh 3.2 mph SE5.1 kmh SE - 0.7 mph 1.1 kmh
Wind Gusts 1.8 mph2.9 kmh 6.3 mph10.1 kmh - -
Humidity 87% 91% 76% 86%
Pressure 29.36 in994.2 mb 30.33 in1027.1 mb 29.33 in993.2 mb -
Hour Temp Dew Point Humidity Winds Wind Gusts Pressure Precip Precip Rate Daily Precip Total
08:30 PM 25.0°F-3.9°C 21.7°F-5.7°C 87% 0.9 mph 1.4 kmh 1.8 mph2.9 kmh 29.36 in994.2 mb 0.00 in0.0 mm 0.00 in/hr0.0 mm/hr 0.00 in0.0 mm
08:25 PM 25.2°F-3.8°C 21.9°F-5.6°C 87% 1.2 mph 1.9 kmh 1.8 mph2.9 kmh 29.35 in993.9 mb 0.00 in0.0 mm 0.00 in/hr0.0 mm/hr 0.00 in0.0 mm
08:19 PM 25.6°F-3.6°C 22.5°F-5.3°C 88% 1.2 mph 1.9 kmh 2.0 mph3.2 kmh 29.35 in993.9 mb 0.00 in0.0 mm 0.00 in/hr0.0 mm/hr 0.00 in0.0 mm
08:15 PM 25.7°F-3.5°C 22.7°F-5.2°C 88% 1.2 mph 1.9 kmh 2.0 mph3.2 kmh 29.35 in993.9 mb 0.00 in0.0 mm 0.00 in/hr0.0 mm/hr 0.00 in0.0 mm
08:09 PM 26.3°F-3.2°C 23.5°F-4.7°C 89% 0.9 mph 1.4 kmh 1.3 mph2.1 kmh 29.35 in993.9 mb 0.00 in0.0 mm 0.00 in/hr0.0 mm/hr 0.00 in0.0 mm
08:04 PM 26.3°F-3.2°C 23.5°F-4.7°C 89% 0.7 mph 1.1 kmh 1.3 mph2.1 kmh 29.35 in993.9 mb 0.00 in0.0 mm 0.00 in/hr0.0 mm/hr 0.00 in0.0 mm
07:59 PM 26.5°F-3.1°C 23.7°F-4.6°C 89% 0.5 mph 0.8 kmh 1.3 mph2.1 kmh 29.35 in993.9 mb 0.00 in0.0 mm 0.00 in/hr0.0 mm/hr 0.00 in0.0 mm
07:54 PM 26.6°F-3.0°C 24.1°F-4.4°C 90% 0.4 mph 0.6 kmh 1.1 mph1.8 kmh 29.35 in993.9 mb 0.00 in0.0 mm 0.00 in/hr0.0 mm/hr 0.00 in0.0 mm
07:49 PM 26.8°F-2.9°C 24.3°F-4.3°C 90% 0.5 mph 0.8 kmh 1.1 mph1.8 kmh 29.34 in993.6 mb 0.00 in0.0 mm 0.00 in/hr0.0 mm/hr 0.00 in0.0 mm
07:44 PM 27.0°F-2.8°C 24.5°F-4.2°C 90% 0.4 mph 0.6 kmh 0.9 mph1.4 kmh 29.34 in993.6 mb 0.00 in0.0 mm 0.00 in/hr0.0 mm/hr 0.00 in0.0 mm
07:39 PM 27.0°F-2.8°C 24.5°F-4.2°C 90% 0.6 mph 1.0 kmh 0.9 mph1.4 kmh 29.34 in993.6 mb 0.00 in0.0 mm 0.00 in/hr0.0 mm/hr 0.00 in0.0 mm
07:34 PM 27.2°F-2.7°C 24.7°F-4.1°C 90% 0.2 mph 0.3 kmh 0.7 mph1.1 kmh 29.34 in993.6 mb 0.00 in0.0 mm 0.00 in/hr0.0 mm/hr 0.00 in0.0 mm
07:29 PM 27.4°F-2.6°C 25.1°F-3.8°C 91% 0.4 mph 0.6 kmh 0.9 mph1.4 kmh 29.34 in993.6 mb 0.00 in0.0 mm 0.00 in/hr0.0 mm/hr 0.00 in0.0 mm
07:24 PM 27.5°F-2.5°C 25.3°F-3.7°C 91% 0.3 mph 0.5 kmh 0.9 mph1.4 kmh 29.34 in993.6 mb 0.00 in0.0 mm 0.00 in/hr0.0 mm/hr 0.00 in0.0 mm
07:19 PM 27.7°F-2.4°C 25.5°F-3.6°C 91% 0.4 mph 0.6 kmh 0.9 mph1.4 kmh 29.34 in993.6 mb 0.00 in0.0 mm 0.00 in/hr0.0 mm/hr 0.00 in0.0 mm
07:14 PM 27.7°F-2.4°C 25.5°F-3.6°C 91% 0.6 mph 1.0 kmh 0.9 mph1.4 kmh 29.34 in993.6 mb 0.00 in0.0 mm 0.00 in/hr0.0 mm/hr 0.00 in0.0 mm
07:09 PM 27.7°F-2.4°C 25.5°F-3.6°C 91% 0.3 mph 0.5 kmh 0.7 mph1.1 kmh 29.34 in993.6 mb 0.00 in0.0 mm 0.00 in/hr0.0 mm/hr 0.00 in0.0 mm
07:04 PM 27.7°F-2.4°C 25.5°F-3.6°C 91% 0.3 mph 0.5 kmh 0.9 mph1.4 kmh 29.34 in993.6 mb 0.00 in0.0 mm 0.00 in/hr0.0 mm/hr 0.00 in0.0 mm
06:59 PM 27.7°F-2.4°C 25.5°F-3.6°C 91% 0.5 mph 0.8 kmh 0.9 mph1.4 kmh 29.34 in993.6 mb 0.00 in0.0 mm 0.00 in/hr0.0 mm/hr 0.00 in0.0 mm
06:54 PM 27.7°F-2.4°C 25.5°F-3.6°C 91% 0.4 mph 0.6 kmh 0.7 mph1.1 kmh 29.33 in993.2 mb 0.00 in0.0 mm 0.00 in/hr0.0 mm/hr 0.00 in0.0 mm
06:49 PM 27.7°F-2.4°C 25.5°F-3.6°C 91% Calm Calm -- 29.34 in993.6 mb 0.00 in0.0 mm 0.00 in/hr0.0 mm/hr 0.00 in0.0 mm
06:44 PM 27.7°F-2.4°C 25.5°F-3.6°C 91% Calm Calm -- 29.34 in993.6 mb 0.00 in0.0 mm 0.00 in/hr0.0 mm/hr 0.00 in0.0 mm
06:39 PM 27.7°F-2.4°C 25.5°F-3.6°C 91% Calm Calm 0.2 mph0.3 kmh 29.34 in993.6 mb 0.00 in0.0 mm 0.00 in/hr0.0 mm/hr 0.00 in0.0 mm
06:34 PM 27.7°F-2.4°C 25.5°F-3.6°C 91% Calm Calm 0.4 mph0.6 kmh 29.33 in993.2 mb 0.00 in0.0 mm 0.00 in/hr0.0 mm/hr 0.00 in0.0 mm
06:29 PM 27.7°F-2.4°C 25.5°F-3.6°C 91% Calm Calm 0.4 mph0.6 kmh 29.33 in993.2 mb 0.00 in0.0 mm 0.00 in/hr0.0 mm/hr 0.00 in0.0 mm
06:24 PM 27.7°F-2.4°C 25.5°F-3.6°C 91% 0.3 mph 0.5 kmh 0.4 mph0.6 kmh 29.33 in993.2 mb 0.00 in0.0 mm 0.00 in/hr0.0 mm/hr 0.00 in0.0 mm
06:19 PM 27.7°F-2.4°C 25.5°F-3.6°C 91% 0.3 mph 0.5 kmh 0.4 mph0.6 kmh 29.33 in993.2 mb 0.00 in0.0 mm 0.00 in/hr0.0 mm/hr 0.00 in0.0 mm
06:14 PM 27.9°F-2.3°C 25.7°F-3.5°C 91% Calm Calm 0.2 mph0.3 kmh 29.33 in993.2 mb 0.00 in0.0 mm 0.00 in/hr0.0 mm/hr 0.00 in0.0 mm
06:09 PM 27.9°F-2.3°C 25.4°F-3.7°C 90% Calm Calm -- 29.33 in993.2 mb 0.00 in0.0 mm 0.00 in/hr0.0 mm/hr 0.00 in0.0 mm
06:04 PM 27.9°F-2.3°C 25.4°F-3.7°C 90% Calm Calm 0.2 mph0.3 kmh 29.33 in993.2 mb 0.00 in0.0 mm 0.00 in/hr0.0 mm/hr 0.00 in0.0 mm
05:59 PM 27.9°F-2.3°C 25.4°F-3.7°C 90% Calm Calm 0.4 mph0.6 kmh 29.34 in993.6 mb 0.00 in0.0 mm 0.00 in/hr0.0 mm/hr 0.00 in0.0 mm
05:54 PM 27.9°F-2.3°C 25.4°F-3.7°C 90% 0.4 mph 0.6 kmh 0.4 mph0.6 kmh 29.34 in993.6 mb 0.00 in0.0 mm 0.00 in/hr0.0 mm/hr 0.00 in0.0 mm
05:49 PM 27.9°F-2.3°C 25.4°F-3.7°C 90% 0.4 mph 0.6 kmh 0.4 mph0.6 kmh 29.34 in993.6 mb 0.00 in0.0 mm 0.00 in/hr0.0 mm/hr 0.00 in0.0 mm
05:44 PM 28.1°F-2.2°C 25.6°F-3.6°C 90% Calm Calm 0.7 mph1.1 kmh 29.34 in993.6 mb 0.00 in0.0 mm 0.00 in/hr0.0 mm/hr 0.00 in0.0 mm
05:39 PM 28.1°F-2.2°C 25.6°F-3.6°C 90% 0.4 mph 0.6 kmh 0.7 mph1.1 kmh 29.34 in993.6 mb 0.00 in0.0 mm 0.00 in/hr0.0 mm/hr 0.00 in0.0 mm
05:34 PM 28.1°F-2.2°C 25.6°F-3.6°C 90% 0.4 mph 0.6 kmh 1.1 mph1.8 kmh 29.34 in993.6 mb 0.00 in0.0 mm 0.00 in/hr0.0 mm/hr 0.00 in0.0 mm
05:29 PM 28.1°F-2.2°C 25.6°F-3.6°C 90% 0.3 mph 0.5 kmh 1.1 mph1.8 kmh 29.34 in993.6 mb 0.00 in0.0 mm 0.00 in/hr0.0 mm/hr 0.00 in0.0 mm
05:24 PM 28.1°F-2.2°C 25.6°F-3.6°C 90% 0.5 mph 0.8 kmh 1.1 mph1.8 kmh 29.34 in993.6 mb 0.00 in0.0 mm 0.00 in/hr0.0 mm/hr 0.00 in0.0 mm
05:19 PM 28.3°F-2.1°C 25.7°F-3.5°C 90% 0.7 mph 1.1 kmh 1.1 mph1.8 kmh 29.34 in993.6 mb 0.00 in0.0 mm 0.00 in/hr0.0 mm/hr 0.00 in0.0 mm
05:14 PM 28.3°F-2.1°C 25.7°F-3.5°C 90% 0.4 mph 0.6 kmh 1.1 mph1.8 kmh 29.35 in993.9 mb 0.00 in0.0 mm 0.00 in/hr0.0 mm/hr 0.00 in0.0 mm
05:09 PM 28.3°F-2.1°C 25.7°F-3.5°C 90% 0.8 mph 1.3 kmh 1.1 mph1.8 kmh 29.34 in993.6 mb 0.00 in0.0 mm 0.00 in/hr0.0 mm/hr 0.00 in0.0 mm
05:04 PM 28.4°F-2.0°C 25.9°F-3.4°C 90% 0.8 mph 1.3 kmh 1.1 mph1.8 kmh 29.34 in993.6 mb 0.00 in0.0 mm 0.00 in/hr0.0 mm/hr 0.00 in0.0 mm
04:59 PM 28.4°F-2.0°C 25.9°F-3.4°C 90% 0.7 mph 1.1 kmh 1.1 mph1.8 kmh 29.34 in993.6 mb 0.00 in0.0 mm 0.00 in/hr0.0 mm/hr 0.00 in0.0 mm
04:54 PM 28.6°F-1.9°C 25.8°F-3.4°C 89% 0.6 mph 1.0 kmh 1.6 mph2.6 kmh 29.35 in993.9 mb 0.00 in0.0 mm 0.00 in/hr0.0 mm/hr 0.00 in0.0 mm
04:49 PM 28.6°F-1.9°C 25.8°F-3.4°C 89% 0.5 mph 0.8 kmh 1.6 mph2.6 kmh 29.35 in993.9 mb 0.00 in0.0 mm 0.00 in/hr0.0 mm/hr 0.00 in0.0 mm
04:44 PM 28.8°F-1.8°C 26.0°F-3.3°C 89% 0.8 mph 1.3 kmh 1.6 mph2.6 kmh 29.35 in993.9 mb 0.00 in0.0 mm 0.00 in/hr0.0 mm/hr 0.00 in0.0 mm
04:39 PM 28.8°F-1.8°C 26.0°F-3.3°C 89% 0.5 mph 0.8 kmh 1.3 mph2.1 kmh 29.35 in993.9 mb 0.00 in0.0 mm 0.00 in/hr0.0 mm/hr 0.00 in0.0 mm
04:34 PM 28.8°F-1.8°C 26.0°F-3.3°C 89% 0.6 mph 1.0 kmh 1.8 mph2.9 kmh 29.36 in994.2 mb 0.00 in0.0 mm 0.00 in/hr0.0 mm/hr 0.00 in0.0 mm
04:29 PM 28.8°F-1.8°C 26.0°F-3.3°C 89% 0.7 mph 1.1 kmh 1.8 mph2.9 kmh 29.36 in994.2 mb 0.00 in0.0 mm 0.00 in/hr0.0 mm/hr 0.00 in0.0 mm
04:24 PM 28.8°F-1.8°C 26.0°F-3.3°C 89% 0.7 mph 1.1 kmh 1.8 mph2.9 kmh 29.36 in994.2 mb 0.00 in0.0 mm 0.00 in/hr0.0 mm/hr 0.00 in0.0 mm
04:19 PM 28.8°F-1.8°C 26.0°F-3.3°C 89% 1.3 mph 2.1 kmh 2.2 mph3.5 kmh 29.36 in994.2 mb 0.00 in0.0 mm 0.00 in/hr0.0 mm/hr 0.00 in0.0 mm
04:14 PM 28.8°F-1.8°C 25.8°F-3.4°C 88% 1.6 mph 2.6 kmh 2.2 mph3.5 kmh 29.36 in994.2 mb 0.00 in0.0 mm 0.00 in/hr0.0 mm/hr 0.00 in0.0 mm
04:09 PM 29.2°F-1.6°C 26.1°F-3.3°C 88% 1.1 mph 1.8 kmh 1.8 mph2.9 kmh 29.37 in994.6 mb 0.00 in0.0 mm 0.00 in/hr0.0 mm/hr 0.00 in0.0 mm
04:04 PM 29.2°F-1.6°C 26.1°F-3.3°C 88% 1.3 mph 2.1 kmh 2.0 mph3.2 kmh 29.37 in994.6 mb 0.00 in0.0 mm 0.00 in/hr0.0 mm/hr 0.00 in0.0 mm
03:59 PM 29.2°F-1.6°C 26.1°F-3.3°C 88% 1.5 mph 2.4 kmh 2.0 mph3.2 kmh 29.38 in994.9 mb 0.00 in0.0 mm 0.00 in/hr0.0 mm/hr 0.00 in0.0 mm
03:54 PM 29.5°F-1.4°C 26.5°F-3.1°C 88% 1.0 mph 1.6 kmh 1.8 mph2.9 kmh 29.38 in994.9 mb 0.00 in0.0 mm 0.00 in/hr0.0 mm/hr 0.00 in0.0 mm
03:49 PM 29.5°F-1.4°C 26.1°F-3.3°C 87% 0.6 mph 1.0 kmh 1.8 mph2.9 kmh 29.38 in994.9 mb 0.00 in0.0 mm 0.00 in/hr0.0 mm/hr 0.00 in0.0 mm
03:44 PM 29.5°F-1.4°C 26.1°F-3.3°C 87% 1.2 mph 1.9 kmh 2.2 mph3.5 kmh 29.39 in995.3 mb 0.00 in0.0 mm 0.00 in/hr0.0 mm/hr 0.00 in0.0 mm
03:39 PM 29.9°F-1.2°C 26.5°F-3.1°C 87% 1.2 mph 1.9 kmh 2.2 mph3.5 kmh 29.39 in995.3 mb 0.00 in0.0 mm 0.00 in/hr0.0 mm/hr 0.00 in0.0 mm
03:34 PM 29.9°F-1.2°C 26.5°F-3.1°C 87% 1.2 mph 1.9 kmh 2.0 mph3.2 kmh 29.39 in995.3 mb 0.00 in0.0 mm 0.00 in/hr0.0 mm/hr 0.00 in0.0 mm
03:29 PM 29.9°F-1.2°C 26.2°F-3.2°C 86% 1.1 mph 1.8 kmh 2.2 mph3.5 kmh 29.40 in995.6 mb 0.00 in0.0 mm 0.00 in/hr0.0 mm/hr 0.00 in0.0 mm
03:24 PM 30.1°F-1.1°C 26.6°F-3.0°C 87% 1.6 mph 2.6 kmh 2.2 mph3.5 kmh 29.40 in995.6 mb 0.00 in0.0 mm 0.00 in/hr0.0 mm/hr 0.00 in0.0 mm
03:19 PM 30.2°F-1.0°C 26.6°F-3.0°C 86% 1.7 mph 2.7 kmh 2.2 mph3.5 kmh 29.40 in995.6 mb 0.00 in0.0 mm 0.00 in/hr0.0 mm/hr 0.00 in0.0 mm
03:14 PM 30.4°F-0.9°C 26.7°F-2.9°C 86% 1.4 mph 2.3 kmh 2.2 mph3.5 kmh 29.41 in995.9 mb 0.00 in0.0 mm 0.00 in/hr0.0 mm/hr 0.00 in0.0 mm
03:09 PM 30.6°F-0.8°C 26.9°F-2.8°C 86% 1.1 mph 1.8 kmh 2.0 mph3.2 kmh 29.41 in995.9 mb 0.00 in0.0 mm 0.00 in/hr0.0 mm/hr 0.00 in0.0 mm
03:04 PM 31.0°F-0.6°C 27.0°F-2.8°C 85% 1.4 mph 2.3 kmh 1.8 mph2.9 kmh 29.41 in995.9 mb 0.00 in0.0 mm 0.00 in/hr0.0 mm/hr 0.00 in0.0 mm
02:59 PM 31.3°F-0.4°C 27.4°F-2.6°C 85% 1.2 mph 1.9 kmh 1.8 mph2.9 kmh 29.41 in995.9 mb 0.00 in0.0 mm 0.00 in/hr0.0 mm/hr 0.00 in0.0 mm
02:54 PM 31.7°F-0.2°C 27.7°F-2.4°C 85% 0.8 mph 1.3 kmh 1.8 mph2.9 kmh 29.41 in995.9 mb 0.00 in0.0 mm 0.00 in/hr0.0 mm/hr 0.00 in0.0 mm
02:49 PM 31.5°F-0.3°C 27.5°F-2.5°C 85% 1.2 mph 1.9 kmh 2.2 mph3.5 kmh 29.41 in995.9 mb 0.00 in0.0 mm 0.00 in/hr0.0 mm/hr 0.00 in0.0 mm
02:44 PM 31.9°F-0.1°C 27.9°F-2.3°C 85% 1.4 mph 2.3 kmh 2.2 mph3.5 kmh 29.42 in996.3 mb 0.00 in0.0 mm 0.00 in/hr0.0 mm/hr 0.00 in0.0 mm
02:39 PM 31.9°F-0.1°C 27.9°F-2.3°C 85% 0.9 mph N1.4 kmh N 2.0 mph3.2 kmh 29.42 in996.3 mb 0.00 in0.0 mm 0.00 in/hr0.0 mm/hr 0.00 in0.0 mm
02:34 PM 32.0°F0.0°C 28.1°F-2.2°C 85% 1.2 mph N1.9 kmh N 2.2 mph3.5 kmh 29.43 in996.6 mb 0.00 in0.0 mm 0.00 in/hr0.0 mm/hr 0.00 in0.0 mm
02:29 PM 32.4°F0.2°C 28.5°F-1.9°C 85% 1.3 mph N2.1 kmh N 2.2 mph3.5 kmh 29.43 in996.6 mb 0.00 in0.0 mm 0.00 in/hr0.0 mm/hr 0.00 in0.0 mm
02:23 PM 32.8°F0.4°C 28.7°F-1.8°C 85% 1.6 mph N2.6 kmh N 2.2 mph3.5 kmh 29.43 in996.6 mb 0.00 in0.0 mm 0.00 in/hr0.0 mm/hr 0.00 in0.0 mm
02:19 PM 32.9°F0.5°C 28.9°F-1.7°C 85% 0.9 mph N1.4 kmh N 1.6 mph2.6 kmh 29.44 in997.0 mb 0.00 in0.0 mm 0.00 in/hr0.0 mm/hr 0.00 in0.0 mm
02:14 PM 32.9°F0.5°C 29.2°F-1.6°C 86% 0.9 mph NNE1.4 kmh NNE 1.3 mph2.1 kmh 29.44 in997.0 mb 0.00 in0.0 mm 0.00 in/hr0.0 mm/hr 0.00 in0.0 mm
02:08 PM 32.9°F0.5°C 29.2°F-1.6°C 86% 0.8 mph NE1.3 kmh NE 1.3 mph2.1 kmh 29.45 in997.3 mb 0.00 in0.0 mm 0.00 in/hr0.0 mm/hr 0.00 in0.0 mm
02:03 PM 32.8°F0.4°C 29.0°F-1.7°C 86% 0.7 mph 1.1 kmh 1.8 mph2.9 kmh 29.46 in997.6 mb 0.00 in0.0 mm 0.00 in/hr0.0 mm/hr 0.00 in0.0 mm
01:58 PM 32.4°F0.2°C 28.7°F-1.8°C 86% 0.7 mph N1.1 kmh N 1.8 mph2.9 kmh 29.47 in998.0 mb 0.00 in0.0 mm 0.00 in/hr0.0 mm/hr 0.00 in0.0 mm
01:53 PM 32.4°F0.2°C 28.7°F-1.8°C 86% 0.5 mph 0.8 kmh 1.6 mph2.6 kmh 29.48 in998.3 mb 0.00 in0.0 mm 0.00 in/hr0.0 mm/hr 0.00 in0.0 mm
01:48 PM 32.6°F0.3°C 28.9°F-1.7°C 86% 0.8 mph N1.3 kmh N 1.3 mph2.1 kmh 29.48 in998.3 mb 0.00 in0.0 mm 0.00 in/hr0.0 mm/hr 0.00 in0.0 mm
01:43 PM 32.8°F0.4°C 29.0°F-1.7°C 86% 0.7 mph 1.1 kmh 1.8 mph2.9 kmh 29.49 in998.6 mb 0.00 in0.0 mm 0.00 in/hr0.0 mm/hr 0.00 in0.0 mm
01:38 PM 32.8°F0.4°C 29.0°F-1.7°C 86% 0.7 mph 1.1 kmh 1.8 mph2.9 kmh 29.50 in999.0 mb 0.00 in0.0 mm 0.00 in/hr0.0 mm/hr 0.00 in0.0 mm
01:33 PM 32.8°F0.4°C 29.0°F-1.7°C 86% 0.9 mph 1.4 kmh 2.0 mph3.2 kmh 29.50 in999.0 mb 0.00 in0.0 mm 0.00 in/hr0.0 mm/hr 0.00 in0.0 mm
01:28 PM 32.8°F0.4°C 28.7°F-1.8°C 85% 1.3 mph 2.1 kmh 2.0 mph3.2 kmh 29.51 in999.3 mb 0.00 in0.0 mm 0.00 in/hr0.0 mm/hr 0.00 in0.0 mm
01:23 PM 32.9°F0.5°C 28.9°F-1.7°C 85% 0.8 mph NW1.3 kmh NW 1.8 mph2.9 kmh 29.51 in999.3 mb 0.00 in0.0 mm 0.00 in/hr0.0 mm/hr 0.00 in0.0 mm
01:18 PM 33.3°F0.7°C 28.9°F-1.7°C 84% 1.0 mph NNW1.6 kmh NNW 1.8 mph2.9 kmh 29.52 in999.7 mb 0.00 in0.0 mm 0.00 in/hr0.0 mm/hr 0.00 in0.0 mm
01:13 PM 33.7°F0.9°C 29.0°F-1.7°C 83% 0.8 mph N1.3 kmh N 1.1 mph1.8 kmh 29.52 in999.7 mb 0.00 in0.0 mm 0.00 in/hr0.0 mm/hr 0.00 in0.0 mm
01:08 PM 33.7°F0.9°C 29.0°F-1.7°C 83% 0.6 mph NNW1.0 kmh NNW 1.1 mph1.8 kmh 29.53 in1000.0 mb 0.00 in0.0 mm 0.00 in/hr0.0 mm/hr 0.00 in0.0 mm
01:03 PM 34.0°F1.1°C 29.4°F-1.4°C 83% 0.8 mph NNW1.3 kmh NNW 1.1 mph1.8 kmh 29.54 in1000.3 mb 0.00 in0.0 mm 0.00 in/hr0.0 mm/hr 0.00 in0.0 mm
12:58 PM 34.2°F1.2°C 29.5°F-1.4°C 83% 0.4 mph 0.6 kmh 1.1 mph1.8 kmh 29.55 in1000.7 mb 0.00 in0.0 mm 0.00 in/hr0.0 mm/hr 0.00 in0.0 mm
12:53 PM 34.9°F1.6°C 29.6°F-1.3°C 81% 0.5 mph 0.8 kmh 1.1 mph1.8 kmh 29.55 in1000.7 mb 0.00 in0.0 mm 0.00 in/hr0.0 mm/hr 0.00 in0.0 mm
12:48 PM 36.0°F2.2°C 30.4°F-0.9°C 80% 0.4 mph 0.6 kmh 1.1 mph1.8 kmh 29.56 in1001.0 mb 0.00 in0.0 mm 0.00 in/hr0.0 mm/hr 0.00 in0.0 mm
12:43 PM 36.4°F2.4°C 31.1°F-0.5°C 81% 0.4 mph NNE0.6 kmh NNE 0.7 mph1.1 kmh 29.57 in1001.4 mb 0.00 in0.0 mm 0.00 in/hr0.0 mm/hr 0.00 in0.0 mm
12:38 PM 36.2°F2.3°C 30.9°F-0.6°C 81% 0.3 mph NNE0.5 kmh NNE 0.7 mph1.1 kmh 29.58 in1001.7 mb 0.00 in0.0 mm 0.00 in/hr0.0 mm/hr 0.00 in0.0 mm
12:33 PM 36.0°F2.2°C 31.0°F-0.6°C 82% 0.3 mph NNE0.5 kmh NNE 0.9 mph1.4 kmh 29.58 in1001.7 mb 0.00 in0.0 mm 0.00 in/hr0.0 mm/hr 0.00 in0.0 mm
12:28 PM 35.6°F2.0°C 30.6°F-0.8°C 82% 0.3 mph ESE0.5 kmh ESE 0.9 mph1.4 kmh 29.60 in1002.4 mb 0.00 in0.0 mm 0.00 in/hr0.0 mm/hr 0.00 in0.0 mm
12:23 PM 35.6°F2.0°C 30.6°F-0.8°C 82% 0.4 mph NNW0.6 kmh NNW 1.1 mph1.8 kmh 29.60 in1002.4 mb 0.00 in0.0 mm 0.00 in/hr0.0 mm/hr 0.00 in0.0 mm
12:18 PM 35.8°F2.1°C 30.8°F-0.7°C 82% 0.5 mph NW0.8 kmh NW 1.1 mph1.8 kmh 29.60 in1002.4 mb 0.00 in0.0 mm 0.00 in/hr0.0 mm/hr 0.00 in0.0 mm
12:13 PM 36.2°F2.3°C 31.1°F-0.5°C 82% 0.2 mph S0.3 kmh S 0.7 mph1.1 kmh 29.61 in1002.7 mb 0.00 in0.0 mm 0.00 in/hr0.0 mm/hr 0.00 in0.0 mm
12:08 PM 36.2°F2.3°C 31.5°F-0.3°C 83% 0.3 mph SSW0.5 kmh SSW 0.4 mph0.6 kmh 29.62 in1003.0 mb 0.00 in0.0 mm 0.00 in/hr0.0 mm/hr 0.00 in0.0 mm
12:03 PM 35.8°F2.1°C 31.4°F-0.3°C 84% 0.3 mph SSW0.5 kmh SSW 1.3 mph2.1 kmh 29.63 in1003.4 mb 0.00 in0.0 mm 0.00 in/hr0.0 mm/hr 0.00 in0.0 mm
11:58 AM 35.3°F1.8°C 30.9°F-0.6°C 84% 0.4 mph SSW0.6 kmh SSW 1.8 mph2.9 kmh 29.63 in1003.4 mb 0.00 in0.0 mm 0.00 in/hr0.0 mm/hr 0.00 in0.0 mm
11:53 AM 34.9°F1.6°C 30.5°F-0.8°C 84% 0.3 mph SW0.5 kmh SW 1.8 mph2.9 kmh 29.64 in1003.7 mb 0.00 in0.0 mm 0.00 in/hr0.0 mm/hr 0.00 in0.0 mm
11:48 AM 34.7°F1.5°C 30.3°F-0.9°C 84% 0.4 mph S0.6 kmh S 1.8 mph2.9 kmh 29.65 in1004.1 mb 0.00 in0.0 mm 0.00 in/hr0.0 mm/hr 0.00 in0.0 mm
11:43 AM 34.2°F1.2°C 29.8°F-1.2°C 84% 0.4 mph S0.6 kmh S 1.8 mph2.9 kmh 29.65 in1004.1 mb 0.00 in0.0 mm 0.00 in/hr0.0 mm/hr 0.00 in0.0 mm
11:38 AM 34.2°F1.2°C 29.8°F-1.2°C 84% 0.3 mph S0.5 kmh S 1.6 mph2.6 kmh 29.66 in1004.4 mb 0.00 in0.0 mm 0.00 in/hr0.0 mm/hr 0.00 in0.0 mm
11:33 AM 33.8°F1.0°C 29.4°F-1.4°C 84% 0.8 mph S1.3 kmh S 1.6 mph2.6 kmh 29.67 in1004.7 mb 0.00 in0.0 mm 0.00 in/hr0.0 mm/hr 0.00 in0.0 mm
11:28 AM 33.3°F0.7°C 29.3°F-1.5°C 85% 0.5 mph S0.8 kmh S 1.6 mph2.6 kmh 29.68 in1005.1 mb 0.00 in0.0 mm 0.00 in/hr0.0 mm/hr 0.00 in0.0 mm
11:23 AM 33.1°F0.6°C 29.1°F-1.6°C 85% 1.0 mph S1.6 kmh S 1.6 mph2.6 kmh 29.69 in1005.4 mb 0.00 in0.0 mm 0.00 in/hr0.0 mm/hr 0.00 in0.0 mm
11:18 AM 33.1°F0.6°C 29.1°F-1.6°C 85% 0.9 mph S1.4 kmh S 2.0 mph3.2 kmh 29.69 in1005.4 mb 0.00 in0.0 mm 0.00 in/hr0.0 mm/hr 0.00 in0.0 mm
11:13 AM 32.9°F0.5°C 28.9°F-1.7°C 85% 1.0 mph S1.6 kmh S 2.0 mph3.2 kmh 29.70 in1005.8 mb 0.00 in0.0 mm 0.00 in/hr0.0 mm/hr 0.00 in0.0 mm
11:08 AM 33.1°F0.6°C 29.1°F-1.6°C 85% 0.4 mph S0.6 kmh S 1.1 mph1.8 kmh 29.71 in1006.1 mb 0.00 in0.0 mm 0.00 in/hr0.0 mm/hr 0.00 in0.0 mm
11:03 AM 32.8°F0.4°C 29.0°F-1.7°C 86% 0.3 mph S0.5 kmh S 2.5 mph4.0 kmh 29.71 in1006.1 mb 0.00 in0.0 mm 0.00 in/hr0.0 mm/hr 0.00 in0.0 mm
10:58 AM 32.4°F0.2°C 28.7°F-1.8°C 86% 1.0 mph S1.6 kmh S 2.5 mph4.0 kmh 29.71 in1006.1 mb 0.00 in0.0 mm 0.00 in/hr0.0 mm/hr 0.00 in0.0 mm
10:53 AM 32.2°F0.1°C 28.5°F-1.9°C 86% 0.4 mph S0.6 kmh S 2.5 mph4.0 kmh 29.72 in1006.4 mb 0.00 in0.0 mm 0.00 in/hr0.0 mm/hr 0.00 in0.0 mm
10:48 AM 32.2°F0.1°C 28.5°F-1.9°C 86% 1.6 mph S2.6 kmh S 2.5 mph4.0 kmh 29.73 in1006.8 mb 0.00 in0.0 mm 0.00 in/hr0.0 mm/hr 0.00 in0.0 mm
10:43 AM 32.0°F0.0°C 28.4°F-2.0°C 86% 0.7 mph S1.1 kmh S 1.8 mph2.9 kmh 29.73 in1006.8 mb 0.00 in0.0 mm 0.00 in/hr0.0 mm/hr 0.00 in0.0 mm
10:38 AM 32.0°F0.0°C 28.4°F-2.0°C 86% 0.7 mph S1.1 kmh S 2.7 mph4.3 kmh 29.74 in1007.1 mb 0.00 in0.0 mm 0.00 in/hr0.0 mm/hr 0.00 in0.0 mm
10:33 AM 32.0°F0.0°C 28.4°F-2.0°C 86% 0.9 mph S1.4 kmh S 2.7 mph4.3 kmh 29.75 in1007.5 mb 0.00 in0.0 mm 0.00 in/hr0.0 mm/hr 0.00 in0.0 mm
10:28 AM 32.0°F0.0°C 28.4°F-2.0°C 86% 1.1 mph S1.8 kmh S 2.0 mph3.2 kmh 29.76 in1007.8 mb 0.00 in0.0 mm 0.00 in/hr0.0 mm/hr 0.00 in0.0 mm
10:23 AM 31.9°F-0.1°C 28.2°F-2.1°C 86% 1.1 mph S1.8 kmh S 2.7 mph4.3 kmh 29.76 in1007.8 mb 0.00 in0.0 mm 0.00 in/hr0.0 mm/hr 0.00 in0.0 mm
10:18 AM 31.7°F-0.2°C 28.3°F-2.1°C 87% 1.8 mph S2.9 kmh S 4.3 mph6.9 kmh 29.77 in1008.1 mb 0.00 in0.0 mm 0.00 in/hr0.0 mm/hr 0.00 in0.0 mm
10:13 AM 31.3°F-0.4°C 27.9°F-2.3°C 87% 1.3 mph S2.1 kmh S 4.3 mph6.9 kmh 29.78 in1008.5 mb 0.00 in0.0 mm 0.00 in/hr0.0 mm/hr 0.00 in0.0 mm
10:08 AM 31.3°F-0.4°C 27.9°F-2.3°C 87% 1.6 mph S2.6 kmh S 2.5 mph4.0 kmh 29.78 in1008.5 mb 0.00 in0.0 mm 0.00 in/hr0.0 mm/hr 0.00 in0.0 mm
10:03 AM 31.3°F-0.4°C 27.9°F-2.3°C 87% 1.4 mph SSE2.3 kmh SSE 2.9 mph4.7 kmh 29.79 in1008.8 mb 0.00 in0.0 mm 0.00 in/hr0.0 mm/hr 0.00 in0.0 mm
09:58 AM 31.1°F-0.5°C 28.1°F-2.2°C 88% 0.7 mph SSE1.1 kmh SSE 3.6 mph5.8 kmh 29.80 in1009.1 mb 0.00 in0.0 mm 0.00 in/hr0.0 mm/hr 0.00 in0.0 mm
09:53 AM 31.0°F-0.6°C 27.9°F-2.3°C 88% 1.4 mph S2.3 kmh S 4.0 mph6.4 kmh 29.81 in1009.5 mb 0.00 in0.0 mm 0.00 in/hr0.0 mm/hr 0.00 in0.0 mm
09:48 AM 30.8°F-0.7°C 27.7°F-2.4°C 88% 1.5 mph S2.4 kmh S 6.3 mph10.1 kmh 29.81 in1009.5 mb 0.00 in0.0 mm 0.00 in/hr0.0 mm/hr 0.00 in0.0 mm
09:43 AM 31.0°F-0.6°C 27.9°F-2.3°C 88% 3.1 mph SE5.0 kmh SE 6.3 mph10.1 kmh 29.82 in1009.8 mb 0.00 in0.0 mm 0.00 in/hr0.0 mm/hr 0.00 in0.0 mm
09:38 AM 30.8°F-0.7°C 27.7°F-2.4°C 88% 2.4 mph SE3.9 kmh SE 5.4 mph8.7 kmh 29.83 in1010.2 mb 0.00 in0.0 mm 0.00 in/hr0.0 mm/hr 0.00 in0.0 mm
09:33 AM 30.6°F-0.8°C 27.6°F-2.4°C 88% 1.2 mph SE1.9 kmh SE 5.4 mph8.7 kmh 29.83 in1010.2 mb 0.00 in0.0 mm 0.00 in/hr0.0 mm/hr 0.00 in0.0 mm
09:28 AM 30.8°F-0.7°C 27.7°F-2.4°C 88% 1.9 mph SE3.1 kmh SE 4.5 mph7.2 kmh 29.83 in1010.2 mb 0.00 in0.0 mm 0.00 in/hr0.0 mm/hr 0.00 in0.0 mm
09:23 AM 30.6°F-0.8°C 27.6°F-2.4°C 88% 1.8 mph SE2.9 kmh SE 4.9 mph7.9 kmh 29.84 in1010.5 mb 0.00 in0.0 mm 0.00 in/hr0.0 mm/hr 0.00 in0.0 mm
09:18 AM 30.4°F-0.9°C 27.4°F-2.6°C 88% 3.2 mph SE5.1 kmh SE 4.9 mph7.9 kmh 29.85 in1010.8 mb 0.00 in0.0 mm 0.00 in/hr0.0 mm/hr 0.00 in0.0 mm
09:13 AM 30.4°F-0.9°C 27.4°F-2.6°C 88% 2.2 mph SE3.5 kmh SE 4.5 mph7.2 kmh 29.86 in1011.2 mb 0.00 in0.0 mm 0.00 in/hr0.0 mm/hr 0.00 in0.0 mm
09:08 AM 30.6°F-0.8°C 27.6°F-2.4°C 88% 2.3 mph SE3.7 kmh SE 4.5 mph7.2 kmh 29.86 in1011.2 mb 0.00 in0.0 mm 0.00 in/hr0.0 mm/hr 0.00 in0.0 mm
09:03 AM 30.2°F-1.0°C 27.5°F-2.5°C 89% 0.8 mph SE1.3 kmh SE 3.8 mph6.1 kmh 29.87 in1011.5 mb 0.00 in0.0 mm 0.00 in/hr0.0 mm/hr 0.00 in0.0 mm
08:58 AM 30.1°F-1.1°C 27.0°F-2.8°C 88% 1.4 mph SE2.3 kmh SE 3.8 mph6.1 kmh 29.88 in1011.9 mb 0.00 in0.0 mm 0.00 in/hr0.0 mm/hr 0.00 in0.0 mm
08:53 AM 29.9°F-1.2°C 26.8°F-2.9°C 88% 2.6 mph SE4.2 kmh SE 3.6 mph5.8 kmh 29.88 in1011.9 mb 0.00 in0.0 mm 0.00 in/hr0.0 mm/hr 0.00 in0.0 mm
08:48 AM 29.7°F-1.3°C 26.7°F-2.9°C 88% 1.3 mph SE2.1 kmh SE 4.7 mph7.6 kmh 29.89 in1012.2 mb 0.00 in0.0 mm 0.00 in/hr0.0 mm/hr 0.00 in0.0 mm
08:43 AM 29.5°F-1.4°C 26.5°F-3.1°C 88% 1.9 mph SE3.1 kmh SE 4.7 mph7.6 kmh 29.89 in1012.2 mb 0.00 in0.0 mm 0.00 in/hr0.0 mm/hr 0.00 in0.0 mm
08:38 AM 29.2°F-1.6°C 26.1°F-3.3°C 88% 2.4 mph SE3.9 kmh SE 4.7 mph7.6 kmh 29.90 in1012.5 mb 0.00 in0.0 mm 0.00 in/hr0.0 mm/hr 0.00 in0.0 mm
08:33 AM 29.0°F-1.7°C 25.9°F-3.4°C 88% 2.0 mph SE3.2 kmh SE 3.1 mph5.0 kmh 29.90 in1012.5 mb 0.00 in0.0 mm 0.00 in/hr0.0 mm/hr 0.00 in0.0 mm
08:28 AM 28.6°F-1.9°C 25.6°F-3.6°C 88% 1.3 mph SE2.1 kmh SE 2.9 mph4.7 kmh 29.91 in1012.9 mb 0.00 in0.0 mm 0.00 in/hr0.0 mm/hr 0.00 in0.0 mm
08:23 AM 28.4°F-2.0°C 25.4°F-3.7°C 88% 0.8 mph SE1.3 kmh SE 2.9 mph4.7 kmh 29.92 in1013.2 mb 0.00 in0.0 mm 0.00 in/hr0.0 mm/hr 0.00 in0.0 mm
08:18 AM 28.3°F-2.1°C 25.2°F-3.8°C 88% 0.6 mph SE1.0 kmh SE 2.2 mph3.5 kmh 29.92 in1013.2 mb 0.00 in0.0 mm 0.00 in/hr0.0 mm/hr 0.00 in0.0 mm
08:13 AM 27.9°F-2.3°C 24.9°F-3.9°C 88% 0.6 mph SE1.0 kmh SE 2.5 mph4.0 kmh 29.93 in1013.5 mb 0.00 in0.0 mm 0.00 in/hr0.0 mm/hr 0.00 in0.0 mm
08:08 AM 27.7°F-2.4°C 24.7°F-4.1°C 88% 1.3 mph SE2.1 kmh SE 2.5 mph4.0 kmh 29.93 in1013.5 mb 0.00 in0.0 mm 0.00 in/hr0.0 mm/hr 0.00 in0.0 mm
08:03 AM 27.5°F-2.5°C 24.5°F-4.2°C 88% 1.2 mph SE1.9 kmh SE 2.0 mph3.2 kmh 29.94 in1013.9 mb 0.00 in0.0 mm 0.00 in/hr0.0 mm/hr 0.00 in0.0 mm
07:58 AM 27.4°F-2.6°C 24.3°F-4.3°C 88% 0.6 mph SE1.0 kmh SE 2.9 mph4.7 kmh 29.94 in1013.9 mb 0.00 in0.0 mm 0.00 in/hr0.0 mm/hr 0.00 in0.0 mm
07:53 AM 27.2°F-2.7°C 24.4°F-4.2°C 89% 1.7 mph SE2.7 kmh SE 3.4 mph5.5 kmh 29.94 in1013.9 mb 0.00 in0.0 mm 0.00 in/hr0.0 mm/hr 0.00 in0.0 mm
07:48 AM 27.0°F-2.8°C 24.0°F-4.4°C 88% 1.8 mph SE2.9 kmh SE 3.4 mph5.5 kmh 29.94 in1013.9 mb 0.00 in0.0 mm 0.00 in/hr0.0 mm/hr 0.00 in0.0 mm
07:43 AM 26.6°F-3.0°C 23.6°F-4.7°C 88% 1.8 mph SE2.9 kmh SE 2.9 mph4.7 kmh 29.94 in1013.9 mb 0.00 in0.0 mm 0.00 in/hr0.0 mm/hr 0.00 in0.0 mm
07:38 AM 26.5°F-3.1°C 23.4°F-4.8°C 88% 1.0 mph SE1.6 kmh SE 2.2 mph3.5 kmh 29.95 in1014.2 mb 0.00 in0.0 mm 0.00 in/hr0.0 mm/hr 0.00 in0.0 mm
07:33 AM 26.3°F-3.2°C 23.2°F-4.9°C 88% 0.5 mph SE0.8 kmh SE 4.7 mph7.6 kmh 29.96 in1014.6 mb 0.00 in0.0 mm 0.00 in/hr0.0 mm/hr 0.00 in0.0 mm
07:28 AM 26.3°F-3.2°C 23.2°F-4.9°C 88% 1.0 mph SE1.6 kmh SE 4.7 mph7.6 kmh 29.96 in1014.6 mb 0.00 in0.0 mm 0.00 in/hr0.0 mm/hr 0.00 in0.0 mm
07:23 AM 26.1°F-3.3°C 23.1°F-4.9°C 88% 1.0 mph SE1.6 kmh SE 2.7 mph4.3 kmh 29.97 in1014.9 mb 0.00 in0.0 mm 0.00 in/hr0.0 mm/hr 0.00 in0.0 mm
07:18 AM 25.9°F-3.4°C 22.9°F-5.1°C 88% 0.9 mph SE1.4 kmh SE 2.7 mph4.3 kmh 29.97 in1014.9 mb 0.00 in0.0 mm 0.00 in/hr0.0 mm/hr 0.00 in0.0 mm
07:13 AM 25.7°F-3.5°C 22.7°F-5.2°C 88% 1.1 mph SE1.8 kmh SE 2.5 mph4.0 kmh 29.98 in1015.2 mb 0.00 in0.0 mm 0.00 in/hr0.0 mm/hr 0.00 in0.0 mm
07:08 AM 25.6°F-3.6°C 22.5°F-5.3°C 88% 0.8 mph SE1.3 kmh SE 2.5 mph4.0 kmh 29.98 in1015.2 mb 0.00 in0.0 mm 0.00 in/hr0.0 mm/hr 0.00 in0.0 mm
07:03 AM 25.2°F-3.8°C 22.2°F-5.4°C 88% 0.5 mph SE0.8 kmh SE 3.4 mph5.5 kmh 29.99 in1015.6 mb 0.00 in0.0 mm 0.00 in/hr0.0 mm/hr 0.00 in0.0 mm
06:58 AM 25.0°F-3.9°C 22.0°F-5.6°C 88% 1.4 mph SE2.3 kmh SE 3.4 mph5.5 kmh 29.99 in1015.6 mb 0.00 in0.0 mm 0.00 in/hr0.0 mm/hr 0.00 in0.0 mm
06:52 AM 24.8°F-4.0°C 21.5°F-5.8°C 87% 1.4 mph SE2.3 kmh SE 2.2 mph3.5 kmh 30.00 in1015.9 mb 0.00 in0.0 mm 0.00 in/hr0.0 mm/hr 0.00 in0.0 mm
06:47 AM 24.7°F-4.1°C 21.6°F-5.8°C 88% 1.1 mph SE1.8 kmh SE 2.2 mph3.5 kmh 30.01 in1016.3 mb 0.00 in0.0 mm 0.00 in/hr0.0 mm/hr 0.00 in0.0 mm
06:42 AM 24.5°F-4.2°C 21.2°F-6.0°C 87% 0.7 mph SE1.1 kmh SE 2.0 mph3.2 kmh 30.02 in1016.6 mb 0.00 in0.0 mm 0.00 in/hr0.0 mm/hr 0.00 in0.0 mm
06:37 AM 24.1°F-4.4°C 20.8°F-6.2°C 87% 0.9 mph SE1.4 kmh SE 2.5 mph4.0 kmh 30.02 in1016.6 mb 0.00 in0.0 mm 0.00 in/hr0.0 mm/hr 0.00 in0.0 mm
06:32 AM 23.9°F-4.5°C 20.6°F-6.3°C 87% 0.9 mph SE1.4 kmh SE 2.5 mph4.0 kmh 30.03 in1016.9 mb 0.00 in0.0 mm 0.00 in/hr0.0 mm/hr 0.00 in0.0 mm
06:27 AM 23.9°F-4.5°C 20.6°F-6.3°C 87% 0.5 mph SE0.8 kmh SE 1.1 mph1.8 kmh 30.03 in1016.9 mb 0.00 in0.0 mm 0.00 in/hr0.0 mm/hr 0.00 in0.0 mm
06:22 AM 23.8°F-4.6°C 20.2°F-6.6°C 86% 0.3 mph SE0.5 kmh SE 1.1 mph1.8 kmh 30.03 in1016.9 mb 0.00 in0.0 mm 0.00 in/hr0.0 mm/hr 0.00 in0.0 mm
06:17 AM 23.8°F-4.6°C 20.2°F-6.6°C 86% 0.3 mph SE0.5 kmh SE 1.1 mph1.8 kmh 30.04 in1017.3 mb 0.00 in0.0 mm 0.00 in/hr0.0 mm/hr 0.00 in0.0 mm
06:12 AM 23.6°F-4.7°C 20.0°F-6.7°C 86% 0.5 mph SE0.8 kmh SE 1.8 mph2.9 kmh 30.04 in1017.3 mb 0.00 in0.0 mm 0.00 in/hr0.0 mm/hr 0.00 in0.0 mm
06:07 AM 23.6°F-4.7°C 20.0°F-6.7°C 86% 0.5 mph SE0.8 kmh SE 2.5 mph4.0 kmh 30.05 in1017.6 mb 0.00 in0.0 mm 0.00 in/hr0.0 mm/hr 0.00 in0.0 mm
06:02 AM 23.4°F-4.8°C 19.5°F-6.9°C 85% 1.2 mph SE1.9 kmh SE 2.5 mph4.0 kmh 30.05 in1017.6 mb 0.00 in0.0 mm 0.00 in/hr0.0 mm/hr 0.00 in0.0 mm
05:57 AM 23.4°F-4.8°C 19.8°F-6.8°C 86% 0.3 mph SE0.5 kmh SE 0.9 mph1.4 kmh 30.06 in1017.9 mb 0.00 in0.0 mm 0.00 in/hr0.0 mm/hr 0.00 in0.0 mm
05:52 AM 23.2°F-4.9°C 19.6°F-6.9°C 86% 0.6 mph SE1.0 kmh SE 0.9 mph1.4 kmh 30.07 in1018.3 mb 0.00 in0.0 mm 0.00 in/hr0.0 mm/hr 0.00 in0.0 mm
05:47 AM 23.2°F-4.9°C 19.4°F-7.0°C 85% 0.3 mph SE0.5 kmh SE 0.9 mph1.4 kmh 30.07 in1018.3 mb 0.00 in0.0 mm 0.00 in/hr0.0 mm/hr 0.00 in0.0 mm
05:42 AM 23.0°F-5.0°C 19.2°F-7.1°C 85% 0.3 mph SE0.5 kmh SE 0.7 mph1.1 kmh 30.08 in1018.6 mb 0.00 in0.0 mm 0.00 in/hr0.0 mm/hr 0.00 in0.0 mm
05:37 AM 22.9°F-5.1°C 19.0°F-7.2°C 85% 0.4 mph SE0.6 kmh SE 0.7 mph1.1 kmh 30.09 in1019.0 mb 0.00 in0.0 mm 0.00 in/hr0.0 mm/hr 0.00 in0.0 mm
05:32 AM 22.7°F-5.2°C 18.8°F-7.3°C 85% 0.4 mph SE0.6 kmh SE 1.8 mph2.9 kmh 30.09 in1019.0 mb 0.00 in0.0 mm 0.00 in/hr0.0 mm/hr 0.00 in0.0 mm
05:27 AM 22.7°F-5.2°C 18.8°F-7.3°C 85% 0.3 mph SE0.5 kmh SE 1.8 mph2.9 kmh 30.09 in1019.0 mb 0.00 in0.0 mm 0.00 in/hr0.0 mm/hr 0.00 in0.0 mm
05:22 AM 22.3°F-5.4°C 18.5°F-7.5°C 85% 0.4 mph SE0.6 kmh SE 0.7 mph1.1 kmh 30.09 in1019.0 mb 0.00 in0.0 mm 0.00 in/hr0.0 mm/hr 0.00 in0.0 mm
05:17 AM 22.3°F-5.4°C 18.5°F-7.5°C 85% 0.4 mph SE0.6 kmh SE 0.4 mph0.6 kmh 30.10 in1019.3 mb 0.00 in0.0 mm 0.00 in/hr0.0 mm/hr 0.00 in0.0 mm
05:12 AM 22.1°F-5.5°C 18.3°F-7.6°C 85% Calm Calm 0.4 mph0.6 kmh 30.11 in1019.6 mb 0.00 in0.0 mm 0.00 in/hr0.0 mm/hr 0.00 in0.0 mm
05:07 AM 22.1°F-5.5°C 18.3°F-7.6°C 85% 0.3 mph SE0.5 kmh SE 1.1 mph1.8 kmh 30.11 in1019.6 mb 0.00 in0.0 mm 0.00 in/hr0.0 mm/hr 0.00 in0.0 mm
05:02 AM 22.0°F-5.6°C 18.1°F-7.7°C 85% 0.3 mph SE0.5 kmh SE 1.1 mph1.8 kmh 30.12 in1020.0 mb 0.00 in0.0 mm 0.00 in/hr0.0 mm/hr 0.00 in0.0 mm
04:57 AM 22.0°F-5.6°C 18.1°F-7.7°C 85% 0.4 mph SE0.6 kmh SE 1.1 mph1.8 kmh 30.12 in1020.0 mb 0.00 in0.0 mm 0.00 in/hr0.0 mm/hr 0.00 in0.0 mm
04:52 AM 22.0°F-5.6°C 18.1°F-7.7°C 85% 0.5 mph SE0.8 kmh SE 0.9 mph1.4 kmh 30.12 in1020.0 mb 0.00 in0.0 mm 0.00 in/hr0.0 mm/hr 0.00 in0.0 mm
04:47 AM 21.8°F-5.7°C 17.9°F-7.8°C 85% 0.5 mph SE0.8 kmh SE 1.1 mph1.8 kmh 30.12 in1020.0 mb 0.00 in0.0 mm 0.00 in/hr0.0 mm/hr 0.00 in0.0 mm
04:42 AM 21.8°F-5.7°C 17.9°F-7.8°C 85% 0.4 mph SE0.6 kmh SE 1.1 mph1.8 kmh 30.13 in1020.3 mb 0.00 in0.0 mm 0.00 in/hr0.0 mm/hr 0.00 in0.0 mm
04:37 AM 21.6°F-5.8°C 17.7°F-7.9°C 85% 0.4 mph SE0.6 kmh SE 1.3 mph2.1 kmh 30.13 in1020.3 mb 0.00 in0.0 mm 0.00 in/hr0.0 mm/hr 0.00 in0.0 mm
04:32 AM 21.4°F-5.9°C 17.6°F-8.0°C 85% 0.6 mph SE1.0 kmh SE 1.3 mph2.1 kmh 30.14 in1020.7 mb 0.00 in0.0 mm 0.00 in/hr0.0 mm/hr 0.00 in0.0 mm
04:27 AM 21.2°F-6.0°C 17.1°F-8.3°C 84% 0.6 mph SE1.0 kmh SE 1.1 mph1.8 kmh 30.14 in1020.7 mb 0.00 in0.0 mm 0.00 in/hr0.0 mm/hr 0.00 in0.0 mm
04:22 AM 21.2°F-6.0°C 17.4°F-8.1°C 85% Calm Calm 1.3 mph2.1 kmh 30.15 in1021.0 mb 0.00 in0.0 mm 0.00 in/hr0.0 mm/hr 0.00 in0.0 mm
04:17 AM 21.1°F-6.1°C 17.2°F-8.2°C 85% 0.3 mph SE0.5 kmh SE 1.8 mph2.9 kmh 30.15 in1021.0 mb 0.00 in0.0 mm 0.00 in/hr0.0 mm/hr 0.00 in0.0 mm
04:12 AM 20.9°F-6.2°C 16.7°F-8.5°C 84% 0.6 mph SE1.0 kmh SE 1.8 mph2.9 kmh 30.15 in1021.0 mb 0.00 in0.0 mm 0.00 in/hr0.0 mm/hr 0.00 in0.0 mm
04:07 AM 20.7°F-6.3°C 16.8°F-8.4°C 85% 0.4 mph SE0.6 kmh SE 1.6 mph2.6 kmh 30.15 in1021.0 mb 0.00 in0.0 mm 0.00 in/hr0.0 mm/hr 0.00 in0.0 mm
04:02 AM 20.5°F-6.4°C 16.4°F-8.7°C 84% 1.0 mph SE1.6 kmh SE 1.6 mph2.6 kmh 30.15 in1021.0 mb 0.00 in0.0 mm 0.00 in/hr0.0 mm/hr 0.00 in0.0 mm
03:57 AM 20.5°F-6.4°C 16.4°F-8.7°C 84% 0.3 mph SE0.5 kmh SE 1.1 mph1.8 kmh 30.16 in1021.3 mb 0.00 in0.0 mm 0.00 in/hr0.0 mm/hr 0.00 in0.0 mm
03:52 AM 20.3°F-6.5°C 16.2°F-8.8°C 84% 0.4 mph SE0.6 kmh SE 1.1 mph1.8 kmh 30.16 in1021.3 mb 0.00 in0.0 mm 0.00 in/hr0.0 mm/hr 0.00 in0.0 mm
03:47 AM 20.2°F-6.6°C 16.0°F-8.9°C 84% 0.3 mph SE0.5 kmh SE 1.8 mph2.9 kmh 30.16 in1021.3 mb 0.00 in0.0 mm 0.00 in/hr0.0 mm/hr 0.00 in0.0 mm
03:42 AM 19.8°F-6.8°C 15.7°F-9.1°C 84% 0.3 mph SE0.5 kmh SE 1.8 mph2.9 kmh 30.16 in1021.3 mb 0.00 in0.0 mm 0.00 in/hr0.0 mm/hr 0.00 in0.0 mm
03:37 AM 19.1°F-7.2°C 14.9°F-9.5°C 84% 1.0 mph SE1.6 kmh SE 1.8 mph2.9 kmh 30.17 in1021.7 mb 0.00 in0.0 mm 0.00 in/hr0.0 mm/hr 0.00 in0.0 mm
03:32 AM 18.5°F-7.5°C 14.4°F-9.8°C 84% 0.4 mph SE0.6 kmh SE 0.9 mph1.4 kmh 30.17 in1021.7 mb 0.00 in0.0 mm 0.00 in/hr0.0 mm/hr 0.00 in0.0 mm
03:27 AM 17.6°F-8.0°C 13.0°F-10.6°C 82% 0.6 mph SE1.0 kmh SE 0.9 mph1.4 kmh 30.17 in1021.7 mb 0.00 in0.0 mm 0.00 in/hr0.0 mm/hr 0.00 in0.0 mm
03:22 AM 17.3°F-8.2°C 12.3°F-10.9°C 81% 0.3 mph SE0.5 kmh SE 0.4 mph0.6 kmh 30.18 in1022.0 mb 0.00 in0.0 mm 0.00 in/hr0.0 mm/hr 0.00 in0.0 mm
03:17 AM 17.3°F-8.2°C 12.3°F-10.9°C 81% Calm Calm -- 30.18 in1022.0 mb 0.00 in0.0 mm 0.00 in/hr0.0 mm/hr 0.00 in0.0 mm
03:12 AM 17.3°F-8.2°C 12.3°F-10.9°C 81% Calm Calm -- 30.19 in1022.4 mb 0.00 in0.0 mm 0.00 in/hr0.0 mm/hr 0.00 in0.0 mm
03:07 AM 17.3°F-8.2°C 12.3°F-10.9°C 81% Calm Calm -- 30.19 in1022.4 mb 0.00 in0.0 mm 0.00 in/hr0.0 mm/hr 0.00 in0.0 mm
03:02 AM 17.1°F-8.3°C 12.3°F-10.9°C 81% Calm Calm -- 30.19 in1022.4 mb 0.00 in0.0 mm 0.00 in/hr0.0 mm/hr 0.00 in0.0 mm
02:57 AM 17.1°F-8.3°C 12.3°F-10.9°C 81% Calm Calm -- 30.20 in1022.7 mb 0.00 in0.0 mm 0.00 in/hr0.0 mm/hr 0.00 in0.0 mm
02:52 AM 16.9°F-8.4°C 12.1°F-11.1°C 81% Calm Calm -- 30.21 in1023.0 mb 0.00 in0.0 mm 0.00 in/hr0.0 mm/hr 0.00 in0.0 mm
02:47 AM 16.9°F-8.4°C 12.1°F-11.1°C 81% Calm Calm -- 30.21 in1023.0 mb 0.00 in0.0 mm 0.00 in/hr0.0 mm/hr 0.00 in0.0 mm
02:42 AM 16.9°F-8.4°C 12.1°F-11.1°C 81% Calm Calm -- 30.21 in1023.0 mb 0.00 in0.0 mm 0.00 in/hr0.0 mm/hr 0.00 in0.0 mm
02:37 AM 16.9°F-8.4°C 12.1°F-11.1°C 81% Calm Calm 0.2 mph0.3 kmh 30.22 in1023.4 mb 0.00 in0.0 mm 0.00 in/hr0.0 mm/hr 0.00 in0.0 mm
02:32 AM 16.9°F-8.4°C 12.1°F-11.1°C 81% Calm Calm 0.2 mph0.3 kmh 30.22 in1023.4 mb 0.00 in0.0 mm 0.00 in/hr0.0 mm/hr 0.00 in0.0 mm
02:27 AM 16.7°F-8.5°C 11.9°F-11.2°C 81% Calm Calm 1.1 mph1.8 kmh 30.22 in1023.4 mb 0.00 in0.0 mm 0.00 in/hr0.0 mm/hr 0.00 in0.0 mm
02:22 AM 16.4°F-8.7°C 11.3°F-11.5°C 80% 0.8 mph SE1.3 kmh SE 1.1 mph1.8 kmh 30.22 in1023.4 mb 0.00 in0.0 mm 0.00 in/hr0.0 mm/hr 0.00 in0.0 mm
02:17 AM 16.2°F-8.8°C 11.2°F-11.6°C 80% 0.3 mph SE0.5 kmh SE 0.4 mph0.6 kmh 30.23 in1023.7 mb 0.00 in0.0 mm 0.00 in/hr0.0 mm/hr 0.00 in0.0 mm
02:12 AM 16.2°F-8.8°C 11.2°F-11.6°C 80% Calm Calm 0.4 mph0.6 kmh 30.23 in1023.7 mb 0.00 in0.0 mm 0.00 in/hr0.0 mm/hr 0.00 in0.0 mm
02:07 AM 16.2°F-8.8°C 10.8°F-11.8°C 79% Calm Calm -- 30.23 in1023.7 mb 0.00 in0.0 mm 0.00 in/hr0.0 mm/hr 0.00 in0.0 mm
02:02 AM 16.4°F-8.7°C 11.0°F-11.7°C 79% Calm Calm 0.2 mph0.3 kmh 30.23 in1023.7 mb 0.00 in0.0 mm 0.00 in/hr0.0 mm/hr 0.00 in0.0 mm
01:57 AM 16.6°F-8.6°C 11.4°F-11.4°C 80% 0.2 mph SE0.3 kmh SE 0.2 mph0.3 kmh 30.24 in1024.0 mb 0.00 in0.0 mm 0.00 in/hr0.0 mm/hr 0.00 in0.0 mm
01:52 AM 16.6°F-8.6°C 11.2°F-11.6°C 79% Calm Calm 0.4 mph0.6 kmh 30.25 in1024.4 mb 0.00 in0.0 mm 0.00 in/hr0.0 mm/hr 0.00 in0.0 mm
01:47 AM 16.6°F-8.6°C 11.4°F-11.4°C 80% Calm Calm 0.4 mph0.6 kmh 30.25 in1024.4 mb 0.00 in0.0 mm 0.00 in/hr0.0 mm/hr 0.00 in0.0 mm
01:42 AM 16.6°F-8.6°C 11.4°F-11.4°C 80% 0.2 mph SE0.3 kmh SE 0.9 mph1.4 kmh 30.25 in1024.4 mb 0.00 in0.0 mm 0.00 in/hr0.0 mm/hr 0.00 in0.0 mm
01:37 AM 16.6°F-8.6°C 11.4°F-11.4°C 80% 0.5 mph SE0.8 kmh SE 1.1 mph1.8 kmh 30.26 in1024.7 mb 0.00 in0.0 mm 0.00 in/hr0.0 mm/hr 0.00 in0.0 mm
01:32 AM 16.4°F-8.7°C 11.5°F-11.4°C 81% 0.4 mph SE0.6 kmh SE 1.8 mph2.9 kmh 30.26 in1024.7 mb 0.00 in0.0 mm 0.00 in/hr0.0 mm/hr 0.00 in0.0 mm
01:27 AM 16.0°F-8.9°C 11.4°F-11.4°C 82% 0.8 mph SE1.3 kmh SE 1.8 mph2.9 kmh 30.26 in1024.7 mb 0.00 in0.0 mm 0.00 in/hr0.0 mm/hr 0.00 in0.0 mm
01:22 AM 15.5°F-9.2°C 10.4°F-12.0°C 80% 0.9 mph SE1.4 kmh SE 1.8 mph2.9 kmh 30.27 in1025.1 mb 0.00 in0.0 mm 0.00 in/hr0.0 mm/hr 0.00 in0.0 mm
01:17 AM 15.1°F-9.4°C 9.5°F-12.5°C 78% 0.5 mph SE0.8 kmh SE 1.1 mph1.8 kmh 30.28 in1025.4 mb 0.00 in0.0 mm 0.00 in/hr0.0 mm/hr 0.00 in0.0 mm
01:12 AM 14.8°F-9.6°C 9.1°F-12.7°C 78% 0.4 mph SE0.6 kmh SE 1.1 mph1.8 kmh 30.28 in1025.4 mb 0.00 in0.0 mm 0.00 in/hr0.0 mm/hr 0.00 in0.0 mm
01:07 AM 14.8°F-9.6°C 8.8°F-12.9°C 77% 0.3 mph SE0.5 kmh SE 1.1 mph1.8 kmh 30.28 in1025.4 mb 0.00 in0.0 mm 0.00 in/hr0.0 mm/hr 0.00 in0.0 mm
01:02 AM 14.6°F-9.7°C 8.6°F-13.0°C 77% 0.5 mph SE0.8 kmh SE 1.1 mph1.8 kmh 30.28 in1025.4 mb 0.00 in0.0 mm 0.00 in/hr0.0 mm/hr 0.00 in0.0 mm
12:57 AM 14.4°F-9.8°C 8.5°F-13.1°C 77% 0.5 mph SE0.8 kmh SE 0.7 mph1.1 kmh 30.29 in1025.7 mb 0.00 in0.0 mm 0.00 in/hr0.0 mm/hr 0.00 in0.0 mm
12:52 AM 14.4°F-9.8°C 8.5°F-13.1°C 77% 0.3 mph SE0.5 kmh SE 0.4 mph0.6 kmh 30.29 in1025.7 mb 0.00 in0.0 mm 0.00 in/hr0.0 mm/hr 0.00 in0.0 mm
12:47 AM 14.6°F-9.7°C 8.6°F-13.0°C 77% 0.2 mph SE0.3 kmh SE 0.4 mph0.6 kmh 30.29 in1025.7 mb 0.00 in0.0 mm 0.00 in/hr0.0 mm/hr 0.00 in0.0 mm
12:42 AM 14.6°F-9.7°C 8.6°F-13.0°C 77% 0.3 mph SE0.5 kmh SE 0.4 mph0.6 kmh 30.30 in1026.1 mb 0.00 in0.0 mm 0.00 in/hr0.0 mm/hr 0.00 in0.0 mm
12:37 AM 14.8°F-9.6°C 8.6°F-13.0°C 76% Calm Calm 0.2 mph0.3 kmh 30.30 in1026.1 mb 0.00 in0.0 mm 0.00 in/hr0.0 mm/hr 0.00 in0.0 mm
12:32 AM 14.8°F-9.6°C 8.6°F-13.0°C 76% 0.2 mph SE0.3 kmh SE 0.2 mph0.3 kmh 30.30 in1026.1 mb 0.00 in0.0 mm 0.00 in/hr0.0 mm/hr 0.00 in0.0 mm
12:27 AM 14.9°F-9.5°C 8.7°F-12.9°C 76% Calm Calm 0.4 mph0.6 kmh 30.31 in1026.4 mb 0.00 in0.0 mm 0.00 in/hr0.0 mm/hr 0.00 in0.0 mm
12:22 AM 15.1°F-9.4°C 8.9°F-12.8°C 76% 0.4 mph SE0.6 kmh SE 0.4 mph0.6 kmh 30.31 in1026.4 mb 0.00 in0.0 mm 0.00 in/hr0.0 mm/hr 0.00 in0.0 mm
12:17 AM 15.1°F-9.4°C 8.9°F-12.8°C 76% 0.2 mph SE0.3 kmh SE 0.9 mph1.4 kmh 30.32 in1026.8 mb 0.00 in0.0 mm 0.00 in/hr0.0 mm/hr 0.00 in0.0 mm
12:12 AM 15.3°F-9.3°C 9.1°F-12.7°C 76% 0.5 mph SE0.8 kmh SE 0.9 mph1.4 kmh 30.32 in1026.8 mb 0.00 in0.0 mm 0.00 in/hr0.0 mm/hr 0.00 in0.0 mm
12:07 AM 15.3°F-9.3°C 9.1°F-12.7°C 76% Calm Calm 1.1 mph1.8 kmh 30.32 in1026.8 mb 0.00 in0.0 mm 0.00 in/hr0.0 mm/hr 0.00 in0.0 mm
12:02 AM 15.1°F-9.4°C 8.9°F-12.8°C 76% 0.5 mph SE0.8 kmh SE 1.1 mph1.8 kmh 30.33 in1027.1 mb 0.00 in0.0 mm 0.00 in/hr0.0 mm/hr 0.00 in0.0 mm